sensor_id;sensor_type;location;lat;lon;timestamp;pressure;altitude;pressure_sealevel;temperature;humidity
12868;BME280;33517;49.866;8.320;2022-12-18T00:01:18;101857.66;;;-4.26;87.20
12868;BME280;33517;49.866;8.320;2022-12-18T00:04:16;101850.84;;;-4.27;86.90
12868;BME280;33517;49.866;8.320;2022-12-18T00:07:11;101849.03;;;-4.25;87.20
12868;BME280;33517;49.866;8.320;2022-12-18T00:10:04;101850.03;;;-4.29;87.43
12868;BME280;33517;49.866;8.320;2022-12-18T00:12:56;101864.25;;;-4.16;87.86
12868;BME280;33517;49.866;8.320;2022-12-18T00:15:48;101858.22;;;-4.15;87.28
12868;BME280;33517;49.866;8.320;2022-12-18T00:18:40;101864.13;;;-4.11;87.87
12868;BME280;33517;49.866;8.320;2022-12-18T00:21:33;101860.75;;;-4.13;87.15
12868;BME280;33517;49.866;8.320;2022-12-18T00:24:26;101857.41;;;-4.17;87.02
12868;BME280;33517;49.866;8.320;2022-12-18T00:27:18;101853.91;;;-4.13;87.14
12868;BME280;33517;49.866;8.320;2022-12-18T00:30:11;101853.31;;;-4.24;86.90
12868;BME280;33517;49.866;8.320;2022-12-18T00:33:03;101847.69;;;-4.39;87.19
12868;BME280;33517;49.866;8.320;2022-12-18T00:36:00;101861.38;;;-4.39;86.84
12868;BME280;33517;49.866;8.320;2022-12-18T00:38:53;101867.56;;;-4.47;87.07
12868;BME280;33517;49.866;8.320;2022-12-18T00:41:46;101865.13;;;-4.52;86.90
12868;BME280;33517;49.866;8.320;2022-12-18T00:44:56;101868.94;;;-4.70;86.82
12868;BME280;33517;49.866;8.320;2022-12-18T00:47:47;101871.06;;;-4.88;87.06
12868;BME280;33517;49.866;8.320;2022-12-18T00:50:39;101863.41;;;-4.91;87.31
12868;BME280;33517;49.866;8.320;2022-12-18T00:53:31;101867.53;;;-4.84;87.48
12868;BME280;33517;49.866;8.320;2022-12-18T00:56:24;101863.16;;;-4.79;87.00
12868;BME280;33517;49.866;8.320;2022-12-18T00:59:18;101862.25;;;-4.77;87.13
12868;BME280;33517;49.866;8.320;2022-12-18T01:02:10;101866.66;;;-4.83;86.94
12868;BME280;33517;49.866;8.320;2022-12-18T01:05:01;101866.69;;;-4.85;87.17
12868;BME280;33517;49.866;8.320;2022-12-18T01:07:55;101878.97;;;-4.99;86.99
12868;BME280;33517;49.866;8.320;2022-12-18T01:10:47;101877.38;;;-5.04;87.08
12868;BME280;33517;49.866;8.320;2022-12-18T01:13:39;101874.81;;;-5.04;87.48
12868;BME280;33517;49.866;8.320;2022-12-18T01:16:32;101868.84;;;-5.06;87.39
12868;BME280;33517;49.866;8.320;2022-12-18T01:19:24;101863.81;;;-5.09;87.42
12868;BME280;33517;49.866;8.320;2022-12-18T01:22:16;101869.81;;;-5.12;87.27
12868;BME280;33517;49.866;8.320;2022-12-18T01:25:08;101871.50;;;-5.11;87.95
12868;BME280;33517;49.866;8.320;2022-12-18T01:28:00;101869.88;;;-5.13;87.92
12868;BME280;33517;49.866;8.320;2022-12-18T01:30:52;101878.47;;;-5.16;88.26
12868;BME280;33517;49.866;8.320;2022-12-18T01:33:45;101884.66;;;-5.27;87.63
12868;BME280;33517;49.866;8.320;2022-12-18T01:36:38;101885.59;;;-5.31;87.91
12868;BME280;33517;49.866;8.320;2022-12-18T01:39:31;101898.34;;;-5.27;88.14
12868;BME280;33517;49.866;8.320;2022-12-18T01:42:23;101900.13;;;-5.30;88.02
12868;BME280;33517;49.866;8.320;2022-12-18T01:45:25;101899.56;;;-5.46;87.66
12868;BME280;33517;49.866;8.320;2022-12-18T01:48:17;101909.09;;;-5.54;87.55
12868;BME280;33517;49.866;8.320;2022-12-18T01:51:11;101901.63;;;-5.65;87.09
12868;BME280;33517;49.866;8.320;2022-12-18T01:54:03;101899.16;;;-5.72;87.81
12868;BME280;33517;49.866;8.320;2022-12-18T01:56:55;101884.81;;;-5.81;87.40
12868;BME280;33517;49.866;8.320;2022-12-18T01:59:50;101886.63;;;-5.84;87.75
12868;BME280;33517;49.866;8.320;2022-12-18T02:02:44;101882.44;;;-5.90;87.65
12868;BME280;33517;49.866;8.320;2022-12-18T02:05:44;101886.03;;;-6.00;87.52
12868;BME280;33517;49.866;8.320;2022-12-18T02:08:43;101884.44;;;-6.07;87.73
12868;BME280;33517;49.866;8.320;2022-12-18T02:11:44;101885.38;;;-6.14;87.30
12868;BME280;33517;49.866;8.320;2022-12-18T02:14:44;101883.84;;;-6.24;87.41
12868;BME280;33517;49.866;8.320;2022-12-18T02:17:43;101887.31;;;-6.29;87.44
12868;BME280;33517;49.866;8.320;2022-12-18T02:20:42;101878.13;;;-6.41;87.32
12868;BME280;33517;49.866;8.320;2022-12-18T02:23:47;101887.75;;;-6.56;87.84
12868;BME280;33517;49.866;8.320;2022-12-18T02:26:47;101876.78;;;-6.68;87.84
12868;BME280;33517;49.866;8.320;2022-12-18T02:29:43;101874.25;;;-6.68;88.11
12868;BME280;33517;49.866;8.320;2022-12-18T02:32:41;101870.03;;;-6.70;88.08
12868;BME280;33517;49.866;8.320;2022-12-18T02:35:34;101853.88;;;-6.74;88.48
12868;BME280;33517;49.866;8.320;2022-12-18T02:38:29;101858.19;;;-6.79;88.38
12868;BME280;33517;49.866;8.320;2022-12-18T02:41:22;101869.34;;;-6.84;88.26
12868;BME280;33517;49.866;8.320;2022-12-18T02:44:16;101868.41;;;-6.77;88.98
12868;BME280;33517;49.866;8.320;2022-12-18T02:47:09;101850.41;;;-6.71;89.02
12868;BME280;33517;49.866;8.320;2022-12-18T02:50:08;101851.09;;;-6.60;88.82
12868;BME280;33517;49.866;8.320;2022-12-18T02:53:10;101857.16;;;-6.66;88.78
12868;BME280;33517;49.866;8.320;2022-12-18T02:56:09;101850.31;;;-6.65;89.26
12868;BME280;33517;49.866;8.320;2022-12-18T02:59:09;101865.66;;;-6.64;89.14
12868;BME280;33517;49.866;8.320;2022-12-18T03:02:10;101875.97;;;-6.70;88.70
12868;BME280;33517;49.866;8.320;2022-12-18T03:05:11;101876.91;;;-6.75;88.60
12868;BME280;33517;49.866;8.320;2022-12-18T03:08:07;101875.31;;;-6.82;88.48
12868;BME280;33517;49.866;8.320;2022-12-18T03:11:03;101871.88;;;-6.81;88.89
12868;BME280;33517;49.866;8.320;2022-12-18T03:13:58;101880.47;;;-6.85;88.76
12868;BME280;33517;49.866;8.320;2022-12-18T03:16:53;101891.66;;;-6.94;88.39
12868;BME280;33517;49.866;8.320;2022-12-18T03:19:49;101878.09;;;-6.99;88.34
12868;BME280;33517;49.866;8.320;2022-12-18T03:22:43;101865.28;;;-7.00;88.75
12868;BME280;33517;49.866;8.320;2022-12-18T03:25:39;101856.72;;;-6.95;89.00
12868;BME280;33517;49.866;8.320;2022-12-18T03:28:34;101857.56;;;-6.96;89.04
12868;BME280;33517;49.866;8.320;2022-12-18T03:31:30;101872.94;;;-6.97;89.16
12868;BME280;33517;49.866;8.320;2022-12-18T03:34:26;101871.13;;;-6.91;89.35
12868;BME280;33517;49.866;8.320;2022-12-18T03:37:21;101865.13;;;-6.87;89.35
12868;BME280;33517;49.866;8.320;2022-12-18T03:40:13;101855.78;;;-6.88;88.98
12868;BME280;33517;49.866;8.320;2022-12-18T03:43:08;101860.94;;;-6.92;88.72
12868;BME280;33517;49.866;8.320;2022-12-18T03:46:05;101861.78;;;-6.92;89.21
12868;BME280;33517;49.866;8.320;2022-12-18T03:49:01;101860.88;;;-6.88;89.74
12868;BME280;33517;49.866;8.320;2022-12-18T03:52:00;101858.13;;;-6.73;89.97
12868;BME280;33517;49.866;8.320;2022-12-18T03:54:57;101849.34;;;-6.55;89.87
12868;BME280;33517;49.866;8.320;2022-12-18T03:57:51;101850.31;;;-6.64;89.53
12868;BME280;33517;49.866;8.320;2022-12-18T04:00:44;101864.91;;;-6.72;89.49
12868;BME280;33517;49.866;8.320;2022-12-18T04:03:37;101864.13;;;-6.75;89.30
12868;BME280;33517;49.866;8.320;2022-12-18T04:06:30;101853.09;;;-6.80;89.41
12868;BME280;33517;49.866;8.320;2022-12-18T04:09:23;101855.75;;;-6.86;89.19
12868;BME280;33517;49.866;8.320;2022-12-18T04:12:17;101858.28;;;-6.85;89.38
12868;BME280;33517;49.866;8.320;2022-12-18T04:15:09;101857.25;;;-6.70;90.58
12868;BME280;33517;49.866;8.320;2022-12-18T04:18:02;101844.44;;;-6.72;89.93
12868;BME280;33517;49.866;8.320;2022-12-18T04:20:54;101850.56;;;-6.80;89.47
12868;BME280;33517;49.866;8.320;2022-12-18T04:23:46;101842.03;;;-6.81;89.60
12868;BME280;33517;49.866;8.320;2022-12-18T04:26:38;101833.41;;;-6.75;90.05
12868;BME280;33517;49.866;8.320;2022-12-18T04:29:31;101846.22;;;-6.77;89.96
12868;BME280;33517;49.866;8.320;2022-12-18T04:32:23;101846.13;;;-6.69;90.54
12868;BME280;33517;49.866;8.320;2022-12-18T04:35:15;101837.59;;;-6.70;89.67
12868;BME280;33517;49.866;8.320;2022-12-18T04:38:07;101840.31;;;-6.80;89.32
12868;BME280;33517;49.866;8.320;2022-12-18T04:40:59;101830.31;;;-6.97;88.24
12868;BME280;33517;49.866;8.320;2022-12-18T04:43:52;101838.16;;;-7.10;88.84
12868;BME280;33517;49.866;8.320;2022-12-18T04:46:45;101849.34;;;-7.19;89.34
12868;BME280;33517;49.866;8.320;2022-12-18T04:49:37;101850.22;;;-7.21;89.36
12868;BME280;33517;49.866;8.320;2022-12-18T04:52:31;101842.69;;;-7.32;88.56
12868;BME280;33517;49.866;8.320;2022-12-18T04:55:23;101854.78;;;-7.44;88.59
12868;BME280;33517;49.866;8.320;2022-12-18T04:58:15;101859.16;;;-7.57;88.52
12868;BME280;33517;49.866;8.320;2022-12-18T05:01:08;101854.91;;;-7.60;89.16
12868;BME280;33517;49.866;8.320;2022-12-18T05:04:01;101864.38;;;-7.69;88.89
12868;BME280;33517;49.866;8.320;2022-12-18T05:06:53;101866.09;;;-7.68;89.30
12868;BME280;33517;49.866;8.320;2022-12-18T05:09:45;101866.91;;;-7.65;89.17
12868;BME280;33517;49.866;8.320;2022-12-18T05:12:37;101865.28;;;-7.72;88.99
12868;BME280;33517;49.866;8.320;2022-12-18T05:15:51;101873.84;;;-7.77;89.09
12868;BME280;33517;49.866;8.320;2022-12-18T05:18:43;101871.31;;;-7.77;89.14
12868;BME280;33517;49.866;8.320;2022-12-18T05:21:36;101875.47;;;-7.69;89.56
12868;BME280;33517;49.866;8.320;2022-12-18T05:24:28;101865.31;;;-7.76;88.99
12868;BME280;33517;49.866;8.320;2022-12-18T05:27:20;101861.13;;;-7.82;89.11
12868;BME280;33517;49.866;8.320;2022-12-18T05:30:13;101863.66;;;-7.82;89.18
12868;BME280;33517;49.866;8.320;2022-12-18T05:33:05;101864.53;;;-7.81;89.77
12868;BME280;33517;49.866;8.320;2022-12-18T05:35:59;101860.97;;;-7.68;89.50
12868;BME280;33517;49.866;8.320;2022-12-18T05:38:52;101848.22;;;-7.70;89.35
12868;BME280;33517;49.866;8.320;2022-12-18T05:41:44;101852.53;;;-7.73;89.32
12868;BME280;33517;49.866;8.320;2022-12-18T05:44:36;101843.25;;;-7.83;88.87
12868;BME280;33517;49.866;8.320;2022-12-18T05:47:28;101844.19;;;-7.93;88.68
12868;BME280;33517;49.866;8.320;2022-12-18T05:50:20;101855.28;;;-7.93;88.87
12868;BME280;33517;49.866;8.320;2022-12-18T05:53:12;101852.72;;;-7.96;89.13
12868;BME280;33517;49.866;8.320;2022-12-18T05:56:12;101857.00;;;-7.96;88.86
12868;BME280;33517;49.866;8.320;2022-12-18T05:59:05;101855.28;;;-7.97;88.87
12868;BME280;33517;49.866;8.320;2022-12-18T06:01:57;101859.56;;;-7.99;88.83
12868;BME280;33517;49.866;8.320;2022-12-18T06:04:48;101857.06;;;-8.04;88.07
12868;BME280;33517;49.866;8.320;2022-12-18T06:07:40;101854.56;;;-8.11;88.55
12868;BME280;33517;49.866;8.320;2022-12-18T06:10:32;101856.28;;;-8.15;88.46
12868;BME280;33517;49.866;8.320;2022-12-18T06:13:26;101863.06;;;-8.08;88.63
12868;BME280;33517;49.866;8.320;2022-12-18T06:16:18;101862.19;;;-8.07;89.15
12868;BME280;33517;49.866;8.320;2022-12-18T06:19:14;101878.38;;;-8.08;88.56
12868;BME280;33517;49.866;8.320;2022-12-18T06:22:06;101887.78;;;-8.14;88.51
12868;BME280;33517;49.866;8.320;2022-12-18T06:24:58;101889.56;;;-8.24;88.10
12868;BME280;33517;49.866;8.320;2022-12-18T06:27:50;101896.44;;;-8.32;88.21
12868;BME280;33517;49.866;8.320;2022-12-18T06:30:44;101892.19;;;-8.30;88.39
12868;BME280;33517;49.866;8.320;2022-12-18T06:33:36;101898.94;;;-8.23;88.58
12868;BME280;33517;49.866;8.320;2022-12-18T06:36:29;101900.56;;;-8.14;89.10
12868;BME280;33517;49.866;8.320;2022-12-18T06:39:21;101899.66;;;-8.10;88.56
12868;BME280;33517;49.866;8.320;2022-12-18T06:42:12;101907.28;;;-8.07;88.78
12868;BME280;33517;49.866;8.320;2022-12-18T06:45:05;101917.56;;;-8.12;88.35
12868;BME280;33517;49.866;8.320;2022-12-18T06:47:58;101921.84;;;-8.15;88.40
12868;BME280;33517;49.866;8.320;2022-12-18T06:50:50;101909.91;;;-8.15;88.67
12868;BME280;33517;49.866;8.320;2022-12-18T06:53:42;101925.16;;;-8.03;89.19
12868;BME280;33517;49.866;8.320;2022-12-18T06:56:34;101923.38;;;-7.98;88.88
12868;BME280;33517;49.866;8.320;2022-12-18T06:59:26;101925.94;;;-7.95;89.28
12868;BME280;33517;49.866;8.320;2022-12-18T07:02:18;101930.09;;;-7.86;88.61
12868;BME280;33517;49.866;8.320;2022-12-18T07:05:11;101928.31;;;-7.77;89.19
12868;BME280;33517;49.866;8.320;2022-12-18T07:08:03;101936.75;;;-7.67;88.88
12868;BME280;33517;49.866;8.320;2022-12-18T07:10:55;101924.94;;;-7.80;88.00
12868;BME280;33517;49.866;8.320;2022-12-18T07:13:48;101922.44;;;-7.83;88.29
12868;BME280;33517;49.866;8.320;2022-12-18T07:16:40;101912.16;;;-7.79;88.89
12868;BME280;33517;49.866;8.320;2022-12-18T07:19:32;101924.09;;;-7.81;88.61
12868;BME280;33517;49.866;8.320;2022-12-18T07:22:26;101920.72;;;-7.81;88.66
12868;BME280;33517;49.866;8.320;2022-12-18T07:25:18;101918.19;;;-7.83;88.22
12868;BME280;33517;49.866;8.320;2022-12-18T07:28:10;101921.50;;;-7.75;88.54
12868;BME280;33517;49.866;8.320;2022-12-18T07:31:03;101913.06;;;-7.81;87.82
12868;BME280;33517;49.866;8.320;2022-12-18T07:33:56;101909.69;;;-7.85;87.65
12868;BME280;33517;49.866;8.320;2022-12-18T07:36:48;101920.75;;;-7.86;87.89
12868;BME280;33517;49.866;8.320;2022-12-18T07:39:41;101912.22;;;-7.83;87.59
12868;BME280;33517;49.866;8.320;2022-12-18T07:42:33;101918.16;;;-7.80;87.38
12868;BME280;33517;49.866;8.320;2022-12-18T07:45:25;101918.88;;;-7.69;87.77
12868;BME280;33517;49.866;8.320;2022-12-18T07:48:17;101922.28;;;-7.64;87.00
12868;BME280;33517;49.866;8.320;2022-12-18T07:51:09;101934.13;;;-7.58;87.67
12868;BME280;33517;49.866;8.320;2022-12-18T07:54:01;101935.72;;;-7.48;87.92
12868;BME280;33517;49.866;8.320;2022-12-18T07:56:54;101947.63;;;-7.42;87.46
12868;BME280;33517;49.866;8.320;2022-12-18T07:59:46;101954.47;;;-7.44;86.15
12868;BME280;33517;49.866;8.320;2022-12-18T08:02:38;101949.22;;;-7.34;86.99
12868;BME280;33517;49.866;8.320;2022-12-18T08:05:30;101950.91;;;-7.31;87.18
12868;BME280;33517;49.866;8.320;2022-12-18T08:08:22;101947.38;;;-7.21;86.61
12868;BME280;33517;49.866;8.320;2022-12-18T08:11:14;101950.69;;;-7.12;86.65
12868;BME280;33517;49.866;8.320;2022-12-18T08:14:07;101948.13;;;-7.10;86.16
12868;BME280;33517;49.866;8.320;2022-12-18T08:16:59;101951.44;;;-7.02;86.76
12868;BME280;33517;49.866;8.320;2022-12-18T08:19:51;101951.44;;;-7.02;86.52
12868;BME280;33517;49.866;8.320;2022-12-18T08:22:43;101948.63;;;-6.81;86.78
12868;BME280;33517;49.866;8.320;2022-12-18T08:25:34;101952.75;;;-6.70;86.24
12868;BME280;33517;49.866;8.320;2022-12-18T08:28:26;101953.47;;;-6.60;86.13
12868;BME280;33517;49.866;8.320;2022-12-18T08:31:20;101943.78;;;-6.35;86.26
12868;BME280;33517;49.866;8.320;2022-12-18T08:34:12;101950.28;;;-6.13;85.77
12868;BME280;33517;49.866;8.320;2022-12-18T08:37:04;101933.69;;;-5.91;85.43
12868;BME280;33517;49.866;8.320;2022-12-18T08:39:56;101922.22;;;-5.71;85.31
12868;BME280;33517;49.866;8.320;2022-12-18T08:42:48;101921.69;;;-5.40;84.83
12868;BME280;33517;49.866;8.320;2022-12-18T08:45:57;101923.25;;;-4.48;83.90
12868;BME280;33517;49.866;8.320;2022-12-18T08:48:52;101919.25;;;-2.91;80.24
12868;BME280;33517;49.866;8.320;2022-12-18T08:51:44;101905.44;;;-1.04;77.68
12868;BME280;33517;49.866;8.320;2022-12-18T08:54:36;101881.66;;;0.39;74.70
12868;BME280;33517;49.866;8.320;2022-12-18T08:57:28;101884.19;;;1.55;73.40
12868;BME280;33517;49.866;8.320;2022-12-18T09:00:20;101878.28;;;2.23;70.63
12868;BME280;33517;49.866;8.320;2022-12-18T09:03:12;101873.31;;;2.86;71.11
12868;BME280;33517;49.866;8.320;2022-12-18T09:06:06;101865.31;;;3.68;68.42
12868;BME280;33517;49.866;8.320;2022-12-18T09:08:58;101876.19;;;4.06;66.73
12868;BME280;33517;49.866;8.320;2022-12-18T09:11:50;101891.53;;;4.40;66.57
12868;BME280;33517;49.866;8.320;2022-12-18T09:14:42;101888.97;;;4.24;64.12
12868;BME280;33517;49.866;8.320;2022-12-18T09:17:34;101886.06;;;4.15;64.29
12868;BME280;33517;49.866;8.320;2022-12-18T09:20:26;101897.16;;;4.03;64.80
12868;BME280;33517;49.866;8.320;2022-12-18T09:23:20;101908.91;;;4.10;65.27
12868;BME280;33517;49.866;8.320;2022-12-18T09:26:12;101911.34;;;4.13;64.01
12868;BME280;33517;49.866;8.320;2022-12-18T09:29:04;101914.16;;;4.39;62.92
12868;BME280;33517;49.866;8.320;2022-12-18T09:31:57;101919.91;;;4.44;62.66
12868;BME280;33517;49.866;8.320;2022-12-18T09:34:49;101916.75;;;5.11;61.96
12868;BME280;33517;49.866;8.320;2022-12-18T09:37:41;101908.63;;;5.44;61.22
12868;BME280;33517;49.866;8.320;2022-12-18T09:40:40;101911.69;;;5.50;59.84
12868;BME280;33517;49.866;8.320;2022-12-18T09:43:39;101907.72;;;5.72;58.80
12868;BME280;33517;49.866;8.320;2022-12-18T09:46:37;101905.91;;;6.13;56.81
12868;BME280;33517;49.866;8.320;2022-12-18T09:49:33;101909.09;;;5.91;57.35
12868;BME280;33517;49.866;8.320;2022-12-18T09:52:29;101915.31;;;5.62;55.42
12868;BME280;33517;49.866;8.320;2022-12-18T09:55:26;101914.31;;;5.36;55.87
12868;BME280;33517;49.866;8.320;2022-12-18T09:58:26;101903.22;;;5.33;56.70
12868;BME280;33517;49.866;8.320;2022-12-18T10:01:22;101901.31;;;5.63;56.01
12868;BME280;33517;49.866;8.320;2022-12-18T10:04:14;101903.47;;;5.97;55.64
12868;BME280;33517;49.866;8.320;2022-12-18T10:07:10;101908.25;;;6.17;55.65
12868;BME280;33517;49.866;8.320;2022-12-18T10:10:13;101919.50;;;6.57;54.83
12868;BME280;33517;49.866;8.320;2022-12-18T10:13:17;101921.19;;;7.33;52.24
12868;BME280;33517;49.866;8.320;2022-12-18T10:16:13;101916.69;;;7.72;51.38
12868;BME280;33517;49.866;8.320;2022-12-18T10:19:20;101908.16;;;7.44;51.96
12868;BME280;33517;49.866;8.320;2022-12-18T10:22:39;101911.25;;;6.63;51.71
12868;BME280;33517;49.866;8.320;2022-12-18T10:25:41;101915.97;;;5.51;51.91
12868;BME280;33517;49.866;8.320;2022-12-18T10:28:37;101908.00;;;5.67;52.12
12868;BME280;33517;49.866;8.320;2022-12-18T10:31:31;101904.09;;;4.91;51.94
12868;BME280;33517;49.866;8.320;2022-12-18T10:34:23;101901.66;;;4.30;52.59
12868;BME280;33517;49.866;8.320;2022-12-18T10:37:17;101895.44;;;3.88;54.09
12868;BME280;33517;49.866;8.320;2022-12-18T10:40:13;101905.00;;;3.87;54.10
12868;BME280;33517;49.866;8.320;2022-12-18T10:43:11;101910.44;;;3.98;54.45
12868;BME280;33517;49.866;8.320;2022-12-18T10:46:12;101901.06;;;3.96;53.25
12868;BME280;33517;49.866;8.320;2022-12-18T10:49:18;101909.22;;;3.58;53.50
12868;BME280;33517;49.866;8.320;2022-12-18T10:52:14;101908.22;;;3.45;53.69
12868;BME280;33517;49.866;8.320;2022-12-18T10:55:16;101906.94;;;3.52;54.66
12868;BME280;33517;49.866;8.320;2022-12-18T10:58:23;101909.31;;;3.72;54.51
12868;BME280;33517;49.866;8.320;2022-12-18T11:01:17;101905.75;;;3.89;53.02
12868;BME280;33517;49.866;8.320;2022-12-18T11:04:17;101906.75;;;4.02;53.60
12868;BME280;33517;49.866;8.320;2022-12-18T11:07:09;101897.91;;;4.20;53.59
12868;BME280;33517;49.866;8.320;2022-12-18T11:10:02;101897.50;;;3.97;53.04
12868;BME280;33517;49.866;8.320;2022-12-18T11:12:54;101889.22;;;4.20;53.54
12868;BME280;33517;49.866;8.320;2022-12-18T11:15:46;101896.59;;;3.98;53.44
12868;BME280;33517;49.866;8.320;2022-12-18T11:18:38;101909.63;;;3.51;53.98
12868;BME280;33517;49.866;8.320;2022-12-18T11:21:39;101915.38;;;3.57;54.34
12868;BME280;33517;49.866;8.320;2022-12-18T11:24:32;101911.41;;;3.35;53.97
12868;BME280;33517;49.866;8.320;2022-12-18T11:27:26;101904.13;;;3.09;54.27
12868;BME280;33517;49.866;8.320;2022-12-18T11:30:24;101900.91;;;2.88;54.83
12868;BME280;33517;49.866;8.320;2022-12-18T11:33:19;101903.41;;;2.90;55.29
12868;BME280;33517;49.866;8.320;2022-12-18T11:36:12;101899.72;;;3.26;55.20
12868;BME280;33517;49.866;8.320;2022-12-18T11:39:16;101904.53;;;3.49;54.99
12868;BME280;33517;49.866;8.320;2022-12-18T11:42:12;101888.16;;;3.32;54.27
12868;BME280;33517;49.866;8.320;2022-12-18T11:45:23;101884.72;;;2.99;54.20
12868;BME280;33517;49.866;8.320;2022-12-18T11:48:20;101884.06;;;2.95;55.24
12868;BME280;33517;49.866;8.320;2022-12-18T11:51:19;101892.56;;;2.81;55.64
12868;BME280;33517;49.866;8.320;2022-12-18T11:54:16;101891.00;;;2.28;55.75
12868;BME280;33517;49.866;8.320;2022-12-18T11:57:15;101899.03;;;2.06;57.25
12868;BME280;33517;49.866;8.320;2022-12-18T12:00:15;101892.41;;;2.18;57.03
12868;BME280;33517;49.866;8.320;2022-12-18T12:03:36;101899.03;;;2.06;56.97
12868;BME280;33517;49.866;8.320;2022-12-18T12:06:36;101891.06;;;1.92;57.26
12868;BME280;33517;49.866;8.320;2022-12-18T12:09:39;101891.22;;;1.70;57.74
12868;BME280;33517;49.866;8.320;2022-12-18T12:12:39;101890.78;;;1.62;57.99
12868;BME280;33517;49.866;8.320;2022-12-18T12:15:43;101885.22;;;1.51;58.41
12868;BME280;33517;49.866;8.320;2022-12-18T12:18:49;101882.84;;;1.10;58.48
12868;BME280;33517;49.866;8.320;2022-12-18T12:21:48;101881.66;;;0.98;59.47
12868;BME280;33517;49.866;8.320;2022-12-18T12:24:59;101878.88;;;1.21;59.51
12868;BME280;33517;49.866;8.320;2022-12-18T12:28:06;101886.91;;;0.97;59.58
12868;BME280;33517;49.866;8.320;2022-12-18T12:31:05;101871.13;;;0.82;60.23
12868;BME280;33517;49.866;8.320;2022-12-18T12:34:06;101878.19;;;0.79;60.35
12868;BME280;33517;49.866;8.320;2022-12-18T12:37:15;101872.13;;;0.80;60.65
12868;BME280;33517;49.866;8.320;2022-12-18T12:40:16;101871.94;;;0.64;60.61
12868;BME280;33517;49.866;8.320;2022-12-18T12:43:22;101842.16;;;0.54;60.89
12868;BME280;33517;49.866;8.320;2022-12-18T12:46:17;101841.78;;;0.23;61.92
12868;BME280;33517;49.866;8.320;2022-12-18T12:49:14;101842.56;;;0.05;62.50
12868;BME280;33517;49.866;8.320;2022-12-18T12:52:15;101840.59;;;-0.10;63.24
12868;BME280;33517;49.866;8.320;2022-12-18T12:55:15;101842.38;;;0.10;63.46
12868;BME280;33517;49.866;8.320;2022-12-18T12:58:15;101840.97;;;-0.19;63.04
12868;BME280;33517;49.866;8.320;2022-12-18T13:01:17;101831.84;;;-0.28;63.18
12868;BME280;33517;49.866;8.320;2022-12-18T13:04:20;101823.44;;;-0.33;63.42
12868;BME280;33517;49.866;8.320;2022-12-18T13:07:19;101822.66;;;-0.56;64.04
12868;BME280;33517;49.866;8.320;2022-12-18T13:10:33;101816.56;;;-0.55;64.47
12868;BME280;33517;49.866;8.320;2022-12-18T13:13:25;101822.34;;;-0.49;64.93
12868;BME280;33517;49.866;8.320;2022-12-18T13:16:18;101818.81;;;-0.46;64.48
12868;BME280;33517;49.866;8.320;2022-12-18T13:19:23;101814.59;;;-0.49;65.31
12868;BME280;33517;49.866;8.320;2022-12-18T13:22:22;101819.06;;;-0.52;65.61
12868;BME280;33517;49.866;8.320;2022-12-18T13:25:29;101819.53;;;-0.43;65.46
12868;BME280;33517;49.866;8.320;2022-12-18T13:28:52;101806.72;;;-0.67;65.69
12868;BME280;33517;49.866;8.320;2022-12-18T13:32:02;101801.47;;;-0.87;65.98
12868;BME280;33517;49.866;8.320;2022-12-18T13:38:21;101804.88;;;-1.09;67.11
12868;BME280;33517;49.866;8.320;2022-12-18T13:41:24;101807.72;;;-0.93;67.33
12868;BME280;33517;49.866;8.320;2022-12-18T13:44:28;101797.06;;;-1.07;68.23
12868;BME280;33517;49.866;8.320;2022-12-18T13:47:26;101793.03;;;-1.14;67.92
12868;BME280;33517;49.866;8.320;2022-12-18T13:50:22;101786.84;;;-1.10;68.09
12868;BME280;33517;49.866;8.320;2022-12-18T13:53:20;101791.81;;;-1.27;68.82
12868;BME280;33517;49.866;8.320;2022-12-18T13:56:15;101795.81;;;-1.42;70.01
12868;BME280;33517;49.866;8.320;2022-12-18T13:59:19;101792.53;;;-1.47;70.36
12868;BME280;33517;49.866;8.320;2022-12-18T14:02:15;101786.50;;;-1.47;70.47
12868;BME280;33517;49.866;8.320;2022-12-18T14:05:21;101780.84;;;-1.57;70.13
12868;BME280;33517;49.866;8.320;2022-12-18T14:08:14;101780.09;;;-1.60;70.56
12868;BME280;33517;49.866;8.320;2022-12-18T14:11:07;101779.69;;;-1.48;71.03
12868;BME280;33517;49.866;8.320;2022-12-18T14:14:12;101777.66;;;-1.40;71.10
12868;BME280;33517;49.866;8.320;2022-12-18T14:17:09;101781.97;;;-1.41;70.96
12868;BME280;33517;49.866;8.320;2022-12-18T14:20:03;101784.22;;;-1.32;70.92
12868;BME280;33517;49.866;8.320;2022-12-18T14:22:56;101787.72;;;-1.33;70.54
12868;BME280;33517;49.866;8.320;2022-12-18T14:25:47;101780.81;;;-1.32;70.56
12868;BME280;33517;49.866;8.320;2022-12-18T14:28:43;101777.44;;;-1.34;71.32
12868;BME280;33517;49.866;8.320;2022-12-18T14:31:35;101788.09;;;-1.43;71.10
12868;BME280;33517;49.866;8.320;2022-12-18T14:34:27;101782.59;;;-1.57;71.52
12868;BME280;33517;49.866;8.320;2022-12-18T14:37:24;101791.50;;;-1.66;71.88
12868;BME280;33517;49.866;8.320;2022-12-18T14:40:16;101785.66;;;-1.71;72.47
12868;BME280;33517;49.866;8.320;2022-12-18T14:43:08;101781.28;;;-1.69;72.84
12868;BME280;33517;49.866;8.320;2022-12-18T14:46:01;101779.59;;;-1.70;72.55
12868;BME280;33517;49.866;8.320;2022-12-18T14:48:55;101785.81;;;-1.75;72.92
12868;BME280;33517;49.866;8.320;2022-12-18T14:51:48;101779.19;;;-1.82;73.03
12868;BME280;33517;49.866;8.320;2022-12-18T14:54:46;101773.19;;;-1.83;73.50
12868;BME280;33517;49.866;8.320;2022-12-18T14:57:38;101774.03;;;-1.82;74.29
12868;BME280;33517;49.866;8.320;2022-12-18T15:00:33;101768.03;;;-1.83;73.93
12868;BME280;33517;49.866;8.320;2022-12-18T15:03:25;101761.34;;;-1.89;74.53
12868;BME280;33517;49.866;8.320;2022-12-18T15:06:24;101769.88;;;-1.87;74.68
12868;BME280;33517;49.866;8.320;2022-12-18T15:09:22;101768.16;;;-1.86;76.10
12868;BME280;33517;49.866;8.320;2022-12-18T15:12:27;101764.31;;;-1.76;75.51
12868;BME280;33517;49.866;8.320;2022-12-18T15:15:47;101751.41;;;-1.74;76.36
12868;BME280;33517;49.866;8.320;2022-12-18T15:18:42;101747.97;;;-1.75;76.95
12868;BME280;33517;49.866;8.320;2022-12-18T15:21:35;101754.97;;;-1.78;76.97
12868;BME280;33517;49.866;8.320;2022-12-18T15:24:33;101745.53;;;-1.79;76.72